createdAt,value
2023-05-14T00:03:36.394Z,797
2023-05-14T00:09:06.741Z,799
2023-05-14T00:14:37.187Z,804
2023-05-14T00:20:06.696Z,799
2023-05-14T00:25:37.172Z,801
2023-05-14T00:31:07.727Z,811
2023-05-14T00:36:37.155Z,806
2023-05-14T00:42:07.605Z,812
2023-05-14T00:47:38.145Z,812
2023-05-14T00:53:07.568Z,820
2023-05-14T00:58:38.056Z,816
2023-05-14T01:04:07.690Z,822
2023-05-14T01:09:38.029Z,827
2023-05-14T01:15:08.486Z,833
2023-05-14T01:20:37.972Z,832
2023-05-14T01:26:08.454Z,840
2023-05-14T01:31:39.050Z,841
2023-05-14T01:37:08.428Z,840
2023-05-14T01:42:38.891Z,840
2023-05-14T01:48:09.409Z,850
2023-05-14T01:53:38.854Z,854
2023-05-14T01:59:09.320Z,851
2023-05-14T02:04:39.808Z,854
2023-05-14T02:10:09.322Z,856
2023-05-14T02:15:39.794Z,853
2023-05-14T02:32:10.264Z,866
2023-05-14T02:37:40.690Z,869
2023-05-14T02:43:11.160Z,872
2023-05-14T02:48:40.659Z,872
2023-05-14T02:59:41.581Z,866
2023-05-14T03:05:11.095Z,863
2023-05-14T03:10:41.552Z,859
2023-05-14T03:16:11.056Z,858
2023-05-14T03:21:41.525Z,862
2023-05-14T03:27:12.011Z,860
2023-05-14T03:32:41.539Z,864
2023-05-14T03:38:11.962Z,865
2023-05-14T03:43:42.440Z,863
2023-05-14T03:49:11.966Z,858
2023-05-14T03:54:42.662Z,861
2023-05-14T04:00:12.874Z,866
2023-05-14T04:05:42.356Z,859
2023-05-14T04:11:12.843Z,862
2023-05-14T04:16:42.494Z,867
2023-05-14T04:22:12.803Z,868
2023-05-14T04:27:43.275Z,864
2023-05-14T04:33:13.762Z,844
2023-05-14T04:38:44.396Z,851
2023-05-14T04:49:44.341Z,834
2023-05-14T04:55:13.808Z,844
2023-05-14T05:00:44.320Z,847
2023-05-14T05:06:14.795Z,853
2023-05-14T05:11:44.297Z,873
2023-05-14T05:17:14.753Z,878
2023-05-14T05:22:45.240Z,868
2023-05-14T05:28:14.711Z,863
2023-05-14T05:33:45.228Z,867
2023-05-14T05:39:15.711Z,874
2023-05-14T05:44:46.248Z,875
2023-05-14T05:50:15.773Z,869
2023-05-14T05:55:45.238Z,870
2023-05-14T06:01:15.763Z,864
2023-05-14T06:12:16.843Z,530
2023-05-14T06:17:47.292Z,520
2023-05-14T06:23:17.803Z,518
2023-05-14T06:28:47.232Z,526
2023-05-14T06:34:17.706Z,527
2023-05-14T06:39:48.287Z,558
2023-05-14T06:45:18.787Z,582
2023-05-14T06:50:49.283Z,606
2023-05-14T06:56:19.873Z,603
2023-05-14T07:01:50.474Z,620
2023-05-14T07:07:20.823Z,630
2023-05-14T07:12:50.302Z,627
2023-05-14T07:18:20.783Z,630
2023-05-14T07:23:50.309Z,616
2023-05-14T07:29:20.778Z,661
2023-05-14T07:34:51.240Z,646
2023-05-14T07:40:22.024Z,640
2023-05-14T07:45:52.341Z,638
2023-05-14T07:51:22.756Z,523
2023-05-14T07:56:53.509Z,501
2023-05-14T08:02:24.091Z,501
2023-05-14T08:07:54.510Z,502
2023-05-14T08:13:23.985Z,494
2023-05-14T08:18:54.532Z,500
2023-05-14T08:24:24.906Z,538
2023-05-14T08:29:55.527Z,516
2023-05-14T08:35:26.074Z,521
2023-05-14T08:40:55.578Z,525
2023-05-14T08:46:26.074Z,528
2023-05-14T08:51:56.536Z,533
2023-05-14T08:57:27.126Z,531
2023-05-14T09:08:28.060Z,528
2023-05-14T09:13:57.541Z,540
2023-05-14T09:24:58.502Z,539
2023-05-14T09:30:28.012Z,546
2023-05-14T09:35:58.495Z,546
2023-05-14T09:41:29.085Z,545
2023-05-14T09:46:59.584Z,546
2023-05-14T09:52:29.096Z,548
2023-05-14T09:57:59.565Z,542
2023-05-14T10:03:30.046Z,538
2023-05-14T10:08:59.570Z,544
2023-05-14T10:14:30.036Z,548
2023-05-14T10:20:00.523Z,544
2023-05-14T10:25:29.998Z,546
2023-05-14T10:31:00.626Z,548
2023-05-14T10:36:31.082Z,544
2023-05-14T10:42:01.712Z,541
2023-05-14T10:47:32.215Z,542
2023-05-14T10:53:02.796Z,542
2023-05-14T10:58:33.228Z,539
2023-05-14T11:04:03.839Z,526
2023-05-14T11:09:33.307Z,501
2023-05-14T11:15:03.848Z,492
2023-05-14T11:20:34.307Z,498
2023-05-14T11:26:04.894Z,501
2023-05-14T11:31:35.388Z,507
2023-05-14T11:37:04.849Z,510
2023-05-14T11:42:35.310Z,502
2023-05-14T11:48:05.881Z,507
2023-05-14T11:53:36.673Z,490
2023-05-14T11:59:07.022Z,487
2023-05-14T12:04:37.624Z,487
2023-05-14T12:10:08.029Z,513
2023-05-14T12:15:38.501Z,495
2023-05-14T12:21:09.090Z,488
2023-05-14T12:26:39.674Z,496
2023-05-14T12:32:10.145Z,510
2023-05-14T12:37:39.651Z,521
2023-05-14T12:43:10.162Z,531
2023-05-14T12:48:40.631Z,523
2023-05-14T12:54:10.126Z,512
2023-05-14T12:59:40.573Z,507
2023-05-14T13:05:11.036Z,509
2023-05-14T13:10:40.551Z,518
2023-05-14T13:16:11.054Z,522
2023-05-14T13:21:40.549Z,516
2023-05-14T13:27:11.126Z,518
2023-05-14T13:38:11.071Z,530
2023-05-14T13:43:41.584Z,539
2023-05-14T13:49:12.046Z,563
2023-05-14T13:54:41.531Z,586
2023-05-14T14:00:12.016Z,609
2023-05-14T14:05:42.627Z,622
2023-05-14T14:11:11.998Z,632
2023-05-14T14:16:42.568Z,648
2023-05-14T14:22:11.952Z,648
2023-05-14T14:27:42.429Z,657
2023-05-14T14:33:12.980Z,676
2023-05-14T14:44:12.896Z,682
2023-05-14T14:49:43.341Z,673
2023-05-14T14:55:13.790Z,671
2023-05-14T15:00:43.283Z,684
2023-05-14T15:06:13.759Z,679
2023-05-14T15:11:44.246Z,688
2023-05-14T15:17:13.745Z,683
2023-05-14T15:22:44.296Z,680
2023-05-14T15:28:14.680Z,687
2023-05-14T15:33:44.218Z,691
2023-05-14T15:39:14.643Z,696
2023-05-14T15:50:14.626Z,691
2023-05-14T15:55:45.087Z,706
2023-05-14T16:01:15.570Z,707
2023-05-14T16:06:45.035Z,699
2023-05-14T16:12:15.519Z,716
2023-05-14T16:17:46.015Z,723
2023-05-14T16:23:15.494Z,732
2023-05-14T16:28:45.966Z,753
2023-05-14T16:34:16.437Z,763
2023-05-14T16:39:45.905Z,746
2023-05-14T16:45:16.396Z,783
2023-05-14T16:50:46.860Z,747
2023-05-14T16:56:17.345Z,747
2023-05-14T17:07:16.427Z,748
2023-05-14T17:12:46.938Z,759
2023-05-14T17:18:16.426Z,764
2023-05-14T17:23:46.868Z,770
2023-05-14T17:29:17.340Z,782
2023-05-14T17:34:46.815Z,798
2023-05-14T17:40:17.283Z,794
2023-05-14T17:51:17.245Z,792
2023-05-14T17:56:47.718Z,797
2023-05-14T18:02:18.199Z,803
2023-05-14T18:07:47.710Z,827
2023-05-14T18:13:18.189Z,828
2023-05-14T18:18:48.709Z,834
2023-05-14T18:24:18.157Z,839
2023-05-14T18:29:48.638Z,849
2023-05-14T18:35:19.105Z,856
2023-05-14T18:40:48.618Z,861
2023-05-14T18:51:49.562Z,874
2023-05-14T18:57:19.065Z,878
2023-05-14T19:02:49.606Z,885
2023-05-14T19:08:20.033Z,907
2023-05-14T19:13:49.509Z,882
2023-05-14T19:19:19.985Z,890
2023-05-14T19:30:19.982Z,889
2023-05-14T19:35:50.421Z,890
2023-05-14T19:41:19.927Z,883
2023-05-14T19:46:50.414Z,885
2023-05-14T19:52:20.860Z,882
2023-05-14T19:57:51.339Z,880
2023-05-14T20:03:20.865Z,880
2023-05-14T20:08:51.313Z,882
2023-05-14T20:14:20.818Z,880
2023-05-14T20:19:51.279Z,881
2023-05-14T20:25:21.764Z,885
2023-05-14T20:30:51.314Z,885
2023-05-14T20:41:52.204Z,881
2023-05-14T20:47:21.723Z,881
2023-05-14T20:52:52.217Z,879
2023-05-14T20:58:22.715Z,885
2023-05-14T21:03:52.376Z,885
2023-05-14T21:09:22.653Z,895
2023-05-14T21:14:52.160Z,900
2023-05-14T21:20:22.630Z,900
2023-05-14T21:25:53.089Z,895
2023-05-14T21:31:22.621Z,896
2023-05-14T21:42:23.580Z,898
2023-05-14T21:47:53.072Z,901
2023-05-14T21:53:23.518Z,906
2023-05-14T21:58:54.012Z,907
2023-05-14T22:04:23.508Z,907
2023-05-14T22:09:53.950Z,910
2023-05-14T22:15:24.635Z,913
2023-05-14T22:20:53.914Z,912
2023-05-14T22:26:24.375Z,906
2023-05-14T22:31:54.986Z,915
2023-05-14T22:37:24.361Z,921
2023-05-14T22:42:54.831Z,920
2023-05-14T22:48:25.317Z,921
2023-05-14T22:53:54.813Z,925
2023-05-14T23:04:55.979Z,930
2023-05-14T23:10:26.249Z,938
2023-05-14T23:15:55.708Z,939
2023-05-14T23:21:26.170Z,939
2023-05-14T23:26:56.655Z,942
2023-05-14T23:32:26.181Z,935
2023-05-14T23:37:56.617Z,946
2023-05-14T23:43:27.119Z,940
2023-05-14T23:48:56.597Z,950
2023-05-14T23:54:27.062Z,952
2023-05-14T23:59:57.558Z,952
